sensor_id;sensor_type;location;lat;lon;timestamp;P1;durP1;ratioP1;P2;durP2;ratioP2
12900;SDS011;6518;50.930;5.344;2023-07-24T00:01:57;10.18;;;5.00;;
12900;SDS011;6518;50.930;5.344;2023-07-24T00:04:24;6.03;;;4.50;;
12900;SDS011;6518;50.930;5.344;2023-07-24T00:06:51;5.80;;;4.68;;
12900;SDS011;6518;50.930;5.344;2023-07-24T00:09:17;9.93;;;4.65;;
12900;SDS011;6518;50.930;5.344;2023-07-24T00:11:44;8.30;;;4.43;;
12900;SDS011;6518;50.930;5.344;2023-07-24T00:14:11;6.65;;;4.50;;
12900;SDS011;6518;50.930;5.344;2023-07-24T00:16:38;7.90;;;4.75;;
12900;SDS011;6518;50.930;5.344;2023-07-24T00:19:06;7.25;;;4.80;;
12900;SDS011;6518;50.930;5.344;2023-07-24T00:21:33;5.22;;;4.40;;
12900;SDS011;6518;50.930;5.344;2023-07-24T00:24:00;8.15;;;4.63;;
12900;SDS011;6518;50.930;5.344;2023-07-24T00:26:27;8.05;;;4.60;;
12900;SDS011;6518;50.930;5.344;2023-07-24T00:28:54;7.75;;;4.95;;
12900;SDS011;6518;50.930;5.344;2023-07-24T00:31:21;7.20;;;4.43;;
12900;SDS011;6518;50.930;5.344;2023-07-24T00:33:47;6.95;;;4.25;;
12900;SDS011;6518;50.930;5.344;2023-07-24T00:36:16;8.43;;;4.63;;
12900;SDS011;6518;50.930;5.344;2023-07-24T00:38:42;9.13;;;4.55;;
12900;SDS011;6518;50.930;5.344;2023-07-24T00:41:09;6.80;;;4.30;;
12900;SDS011;6518;50.930;5.344;2023-07-24T00:43:36;6.35;;;4.07;;
12900;SDS011;6518;50.930;5.344;2023-07-24T00:46:03;6.97;;;4.38;;
12900;SDS011;6518;50.930;5.344;2023-07-24T00:48:30;5.97;;;4.40;;
12900;SDS011;6518;50.930;5.344;2023-07-24T00:50:57;6.72;;;4.40;;
12900;SDS011;6518;50.930;5.344;2023-07-24T00:53:25;10.38;;;4.63;;
12900;SDS011;6518;50.930;5.344;2023-07-24T00:55:52;8.07;;;4.78;;
12900;SDS011;6518;50.930;5.344;2023-07-24T00:58:20;9.52;;;4.90;;
12900;SDS011;6518;50.930;5.344;2023-07-24T01:00:48;12.07;;;4.78;;
12900;SDS011;6518;50.930;5.344;2023-07-24T01:03:16;8.98;;;4.78;;
12900;SDS011;6518;50.930;5.344;2023-07-24T01:05:43;6.35;;;4.35;;
12900;SDS011;6518;50.930;5.344;2023-07-24T01:08:09;7.38;;;4.90;;
12900;SDS011;6518;50.930;5.344;2023-07-24T01:10:38;7.70;;;4.60;;
12900;SDS011;6518;50.930;5.344;2023-07-24T01:13:05;9.32;;;4.70;;
12900;SDS011;6518;50.930;5.344;2023-07-24T01:15:37;7.60;;;4.80;;
12900;SDS011;6518;50.930;5.344;2023-07-24T01:18:08;7.60;;;4.93;;
12900;SDS011;6518;50.930;5.344;2023-07-24T01:20:37;8.57;;;4.82;;
12900;SDS011;6518;50.930;5.344;2023-07-24T01:23:13;10.60;;;5.03;;
12900;SDS011;6518;50.930;5.344;2023-07-24T01:25:53;9.48;;;4.85;;
12900;SDS011;6518;50.930;5.344;2023-07-24T01:28:21;9.38;;;4.60;;
12900;SDS011;6518;50.930;5.344;2023-07-24T01:30:48;10.40;;;4.60;;
12900;SDS011;6518;50.930;5.344;2023-07-24T01:33:16;10.98;;;4.75;;
12900;SDS011;6518;50.930;5.344;2023-07-24T01:35:43;8.50;;;3.95;;
12900;SDS011;6518;50.930;5.344;2023-07-24T01:38:11;8.43;;;4.60;;
12900;SDS011;6518;50.930;5.344;2023-07-24T01:40:39;7.43;;;4.53;;
12900;SDS011;6518;50.930;5.344;2023-07-24T01:43:08;10.50;;;4.80;;
12900;SDS011;6518;50.930;5.344;2023-07-24T01:45:35;7.88;;;4.50;;
12900;SDS011;6518;50.930;5.344;2023-07-24T01:48:03;9.93;;;4.97;;
12900;SDS011;6518;50.930;5.344;2023-07-24T01:50:30;7.85;;;4.50;;
12900;SDS011;6518;50.930;5.344;2023-07-24T01:52:57;7.93;;;4.85;;
12900;SDS011;6518;50.930;5.344;2023-07-24T01:55:24;8.90;;;4.93;;
12900;SDS011;6518;50.930;5.344;2023-07-24T01:57:51;6.63;;;4.60;;
12900;SDS011;6518;50.930;5.344;2023-07-24T02:00:19;9.45;;;5.10;;
12900;SDS011;6518;50.930;5.344;2023-07-24T02:02:46;12.73;;;4.75;;
12900;SDS011;6518;50.930;5.344;2023-07-24T02:05:13;7.38;;;5.07;;
12900;SDS011;6518;50.930;5.344;2023-07-24T02:07:40;10.60;;;5.28;;
12900;SDS011;6518;50.930;5.344;2023-07-24T02:10:07;10.30;;;5.10;;
12900;SDS011;6518;50.930;5.344;2023-07-24T02:12:34;8.48;;;5.38;;
12900;SDS011;6518;50.930;5.344;2023-07-24T02:15:01;9.00;;;4.80;;
12900;SDS011;6518;50.930;5.344;2023-07-24T02:17:30;8.95;;;5.05;;
12900;SDS011;6518;50.930;5.344;2023-07-24T02:19:57;9.15;;;5.22;;
12900;SDS011;6518;50.930;5.344;2023-07-24T02:22:23;9.48;;;5.43;;
12900;SDS011;6518;50.930;5.344;2023-07-24T02:24:50;8.00;;;5.10;;
12900;SDS011;6518;50.930;5.344;2023-07-24T02:27:24;9.40;;;5.07;;
12900;SDS011;6518;50.930;5.344;2023-07-24T02:29:52;7.75;;;5.68;;
12900;SDS011;6518;50.930;5.344;2023-07-24T02:32:19;8.27;;;4.95;;
12900;SDS011;6518;50.930;5.344;2023-07-24T02:34:48;9.50;;;4.90;;
12900;SDS011;6518;50.930;5.344;2023-07-24T02:37:15;8.30;;;5.00;;
12900;SDS011;6518;50.930;5.344;2023-07-24T02:39:42;6.20;;;4.85;;
12900;SDS011;6518;50.930;5.344;2023-07-24T02:42:09;8.98;;;5.03;;
12900;SDS011;6518;50.930;5.344;2023-07-24T02:44:36;8.57;;;5.47;;
12900;SDS011;6518;50.930;5.344;2023-07-24T02:47:03;8.13;;;4.97;;
12900;SDS011;6518;50.930;5.344;2023-07-24T02:49:30;10.60;;;5.85;;
12900;SDS011;6518;50.930;5.344;2023-07-24T02:51:59;7.70;;;5.15;;
12900;SDS011;6518;50.930;5.344;2023-07-24T02:54:26;8.52;;;5.03;;
12900;SDS011;6518;50.930;5.344;2023-07-24T02:56:53;6.93;;;5.13;;
12900;SDS011;6518;50.930;5.344;2023-07-24T02:59:20;8.15;;;5.45;;
12900;SDS011;6518;50.930;5.344;2023-07-24T03:01:46;8.90;;;5.43;;
12900;SDS011;6518;50.930;5.344;2023-07-24T03:04:13;6.80;;;5.88;;
12900;SDS011;6518;50.930;5.344;2023-07-24T03:06:40;7.95;;;5.07;;
12900;SDS011;6518;50.930;5.344;2023-07-24T03:09:08;8.13;;;5.47;;
12900;SDS011;6518;50.930;5.344;2023-07-24T03:11:35;10.38;;;5.68;;
12900;SDS011;6518;50.930;5.344;2023-07-24T03:14:02;11.90;;;5.50;;
12900;SDS011;6518;50.930;5.344;2023-07-24T03:16:29;9.07;;;5.30;;
12900;SDS011;6518;50.930;5.344;2023-07-24T03:18:56;9.93;;;5.68;;
12900;SDS011;6518;50.930;5.344;2023-07-24T03:21:23;7.85;;;5.45;;
12900;SDS011;6518;50.930;5.344;2023-07-24T03:23:50;9.00;;;5.50;;
12900;SDS011;6518;50.930;5.344;2023-07-24T03:26:18;6.75;;;5.00;;
12900;SDS011;6518;50.930;5.344;2023-07-24T03:28:45;7.55;;;5.82;;
12900;SDS011;6518;50.930;5.344;2023-07-24T03:31:12;6.93;;;5.50;;
12900;SDS011;6518;50.930;5.344;2023-07-24T03:33:38;9.77;;;5.60;;
12900;SDS011;6518;50.930;5.344;2023-07-24T03:36:05;10.25;;;5.55;;
12900;SDS011;6518;50.930;5.344;2023-07-24T03:38:32;9.75;;;5.60;;
12900;SDS011;6518;50.930;5.344;2023-07-24T03:40:59;9.43;;;5.18;;
12900;SDS011;6518;50.930;5.344;2023-07-24T03:43:28;8.23;;;5.50;;
12900;SDS011;6518;50.930;5.344;2023-07-24T03:45:54;7.15;;;5.25;;
12900;SDS011;6518;50.930;5.344;2023-07-24T03:48:21;7.28;;;5.72;;
12900;SDS011;6518;50.930;5.344;2023-07-24T03:50:49;10.32;;;5.82;;
12900;SDS011;6518;50.930;5.344;2023-07-24T03:53:16;7.38;;;5.10;;
12900;SDS011;6518;50.930;5.344;2023-07-24T03:55:43;8.23;;;5.15;;
12900;SDS011;6518;50.930;5.344;2023-07-24T03:58:10;8.98;;;6.07;;
12900;SDS011;6518;50.930;5.344;2023-07-24T04:00:39;9.38;;;5.50;;
12900;SDS011;6518;50.930;5.344;2023-07-24T04:03:05;6.60;;;5.07;;
12900;SDS011;6518;50.930;5.344;2023-07-24T04:05:33;9.10;;;5.10;;
12900;SDS011;6518;50.930;5.344;2023-07-24T04:08:01;10.65;;;5.70;;
12900;SDS011;6518;50.930;5.344;2023-07-24T04:10:28;9.43;;;5.13;;
12900;SDS011;6518;50.930;5.344;2023-07-24T04:12:56;9.90;;;5.18;;
12900;SDS011;6518;50.930;5.344;2023-07-24T04:15:23;7.80;;;5.40;;
12900;SDS011;6518;50.930;5.344;2023-07-24T04:17:51;7.20;;;5.05;;
12900;SDS011;6518;50.930;5.344;2023-07-24T04:20:18;8.75;;;5.10;;
12900;SDS011;6518;50.930;5.344;2023-07-24T04:22:45;6.57;;;4.65;;
12900;SDS011;6518;50.930;5.344;2023-07-24T04:25:11;7.10;;;5.00;;
12900;SDS011;6518;50.930;5.344;2023-07-24T04:27:38;6.75;;;5.10;;
12900;SDS011;6518;50.930;5.344;2023-07-24T04:30:06;7.20;;;4.85;;
12900;SDS011;6518;50.930;5.344;2023-07-24T04:32:33;8.13;;;5.25;;
12900;SDS011;6518;50.930;5.344;2023-07-24T04:35:02;7.55;;;5.05;;
12900;SDS011;6518;50.930;5.344;2023-07-24T04:37:29;7.65;;;5.13;;
12900;SDS011;6518;50.930;5.344;2023-07-24T04:39:56;6.70;;;4.85;;
12900;SDS011;6518;50.930;5.344;2023-07-24T04:42:24;7.85;;;4.82;;
12900;SDS011;6518;50.930;5.344;2023-07-24T04:44:50;12.32;;;5.28;;
12900;SDS011;6518;50.930;5.344;2023-07-24T04:47:17;6.05;;;4.38;;
12900;SDS011;6518;50.930;5.344;2023-07-24T04:49:44;7.47;;;4.50;;
12900;SDS011;6518;50.930;5.344;2023-07-24T04:52:12;8.32;;;4.65;;
12900;SDS011;6518;50.930;5.344;2023-07-24T04:54:39;7.50;;;4.55;;
12900;SDS011;6518;50.930;5.344;2023-07-24T04:57:06;7.07;;;4.32;;
12900;SDS011;6518;50.930;5.344;2023-07-24T04:59:33;6.63;;;4.40;;
12900;SDS011;6518;50.930;5.344;2023-07-24T05:02:00;6.38;;;4.20;;
12900;SDS011;6518;50.930;5.344;2023-07-24T05:04:27;6.40;;;4.00;;
12900;SDS011;6518;50.930;5.344;2023-07-24T05:06:53;4.65;;;3.47;;
12900;SDS011;6518;50.930;5.344;2023-07-24T05:09:22;6.40;;;3.38;;
12900;SDS011;6518;50.930;5.344;2023-07-24T05:11:49;5.03;;;3.60;;
12900;SDS011;6518;50.930;5.344;2023-07-24T05:14:15;6.68;;;3.92;;
12900;SDS011;6518;50.930;5.344;2023-07-24T05:16:42;7.75;;;3.83;;
12900;SDS011;6518;50.930;5.344;2023-07-24T05:19:09;4.75;;;3.88;;
12900;SDS011;6518;50.930;5.344;2023-07-24T05:21:36;3.35;;;2.63;;
12900;SDS011;6518;50.930;5.344;2023-07-24T05:24:03;2.95;;;2.13;;
12900;SDS011;6518;50.930;5.344;2023-07-24T05:26:32;2.85;;;1.95;;
12900;SDS011;6518;50.930;5.344;2023-07-24T05:28:58;3.30;;;2.30;;
12900;SDS011;6518;50.930;5.344;2023-07-24T05:31:25;3.30;;;2.45;;
12900;SDS011;6518;50.930;5.344;2023-07-24T05:33:52;5.53;;;2.38;;
12900;SDS011;6518;50.930;5.344;2023-07-24T05:36:19;3.53;;;2.20;;
12900;SDS011;6518;50.930;5.344;2023-07-24T05:38:46;2.75;;;2.30;;
12900;SDS011;6518;50.930;5.344;2023-07-24T05:41:13;3.22;;;2.40;;
12900;SDS011;6518;50.930;5.344;2023-07-24T05:43:44;4.05;;;2.40;;
12900;SDS011;6518;50.930;5.344;2023-07-24T05:46:13;2.80;;;2.22;;
12900;SDS011;6518;50.930;5.344;2023-07-24T05:48:40;6.25;;;2.30;;
12900;SDS011;6518;50.930;5.344;2023-07-24T05:51:07;3.47;;;2.60;;
12900;SDS011;6518;50.930;5.344;2023-07-24T05:53:34;2.70;;;2.17;;
12900;SDS011;6518;50.930;5.344;2023-07-24T05:56:01;4.82;;;2.45;;
12900;SDS011;6518;50.930;5.344;2023-07-24T05:58:29;3.42;;;2.25;;
12900;SDS011;6518;50.930;5.344;2023-07-24T06:00:57;3.38;;;2.92;;
12900;SDS011;6518;50.930;5.344;2023-07-24T06:03:24;2.88;;;2.15;;
12900;SDS011;6518;50.930;5.344;2023-07-24T06:05:51;3.30;;;2.20;;
12900;SDS011;6518;50.930;5.344;2023-07-24T06:08:18;2.88;;;2.17;;
12900;SDS011;6518;50.930;5.344;2023-07-24T06:10:46;3.03;;;2.10;;
12900;SDS011;6518;50.930;5.344;2023-07-24T06:13:13;5.50;;;2.33;;
12900;SDS011;6518;50.930;5.344;2023-07-24T06:15:40;3.00;;;2.15;;
12900;SDS011;6518;50.930;5.344;2023-07-24T06:18:09;3.60;;;2.42;;
12900;SDS011;6518;50.930;5.344;2023-07-24T06:20:36;4.55;;;2.70;;
12900;SDS011;6518;50.930;5.344;2023-07-24T06:23:04;3.75;;;2.47;;
12900;SDS011;6518;50.930;5.344;2023-07-24T06:25:31;3.22;;;2.50;;
12900;SDS011;6518;50.930;5.344;2023-07-24T06:27:58;3.92;;;2.80;;
12900;SDS011;6518;50.930;5.344;2023-07-24T06:30:25;4.03;;;2.40;;
12900;SDS011;6518;50.930;5.344;2023-07-24T06:32:52;3.67;;;2.60;;
12900;SDS011;6518;50.930;5.344;2023-07-24T06:35:21;4.95;;;2.40;;
12900;SDS011;6518;50.930;5.344;2023-07-24T06:37:48;3.45;;;2.60;;
12900;SDS011;6518;50.930;5.344;2023-07-24T06:40:14;3.50;;;2.38;;
12900;SDS011;6518;50.930;5.344;2023-07-24T06:42:41;3.47;;;2.50;;
12900;SDS011;6518;50.930;5.344;2023-07-24T06:45:08;5.32;;;2.47;;
12900;SDS011;6518;50.930;5.344;2023-07-24T06:47:36;3.45;;;2.40;;
12900;SDS011;6518;50.930;5.344;2023-07-24T06:50:03;3.85;;;2.47;;
12900;SDS011;6518;50.930;5.344;2023-07-24T06:52:32;3.10;;;2.17;;
12900;SDS011;6518;50.930;5.344;2023-07-24T06:54:59;2.20;;;1.92;;
12900;SDS011;6518;50.930;5.344;2023-07-24T06:57:26;4.95;;;2.03;;
12900;SDS011;6518;50.930;5.344;2023-07-24T06:59:53;3.08;;;1.88;;
12900;SDS011;6518;50.930;5.344;2023-07-24T07:02:19;3.50;;;2.20;;
12900;SDS011;6518;50.930;5.344;2023-07-24T07:04:46;2.40;;;2.00;;
12900;SDS011;6518;50.930;5.344;2023-07-24T07:07:13;2.72;;;2.05;;
12900;SDS011;6518;50.930;5.344;2023-07-24T07:09:41;2.58;;;2.08;;
12900;SDS011;6518;50.930;5.344;2023-07-24T07:12:08;4.55;;;2.30;;
12900;SDS011;6518;50.930;5.344;2023-07-24T07:14:35;3.63;;;2.00;;
12900;SDS011;6518;50.930;5.344;2023-07-24T07:17:02;6.40;;;2.30;;
12900;SDS011;6518;50.930;5.344;2023-07-24T07:19:29;1.95;;;1.70;;
12900;SDS011;6518;50.930;5.344;2023-07-24T07:21:56;2.80;;;1.80;;
12900;SDS011;6518;50.930;5.344;2023-07-24T07:24:23;1.77;;;1.50;;
12900;SDS011;6518;50.930;5.344;2023-07-24T07:26:51;1.98;;;1.80;;
12900;SDS011;6518;50.930;5.344;2023-07-24T07:29:18;2.20;;;1.80;;
12900;SDS011;6518;50.930;5.344;2023-07-24T07:31:45;2.03;;;1.52;;
12900;SDS011;6518;50.930;5.344;2023-07-24T07:34:12;1.77;;;1.60;;
12900;SDS011;6518;50.930;5.344;2023-07-24T07:36:39;1.67;;;1.50;;
12900;SDS011;6518;50.930;5.344;2023-07-24T07:39:05;2.65;;;1.60;;
12900;SDS011;6518;50.930;5.344;2023-07-24T07:41:32;1.83;;;1.73;;
12900;SDS011;6518;50.930;5.344;2023-07-24T07:44:01;2.40;;;1.92;;
12900;SDS011;6518;50.930;5.344;2023-07-24T07:46:28;5.25;;;2.00;;
12900;SDS011;6518;50.930;5.344;2023-07-24T07:48:55;2.67;;;1.75;;
12900;SDS011;6518;50.930;5.344;2023-07-24T07:51:21;1.90;;;1.63;;
12900;SDS011;6518;50.930;5.344;2023-07-24T07:53:50;1.80;;;1.70;;
12900;SDS011;6518;50.930;5.344;2023-07-24T07:56:17;1.90;;;1.65;;
12900;SDS011;6518;50.930;5.344;2023-07-24T07:58:44;1.70;;;1.60;;
12900;SDS011;6518;50.930;5.344;2023-07-24T08:01:12;1.38;;;1.27;;
12900;SDS011;6518;50.930;5.344;2023-07-24T08:03:39;2.63;;;1.40;;
12900;SDS011;6518;50.930;5.344;2023-07-24T08:06:06;1.88;;;1.67;;
12900;SDS011;6518;50.930;5.344;2023-07-24T08:08:33;1.83;;;1.63;;
12900;SDS011;6518;50.930;5.344;2023-07-24T08:11:03;1.50;;;1.40;;
12900;SDS011;6518;50.930;5.344;2023-07-24T08:13:31;2.03;;;1.48;;
12900;SDS011;6518;50.930;5.344;2023-07-24T08:15:58;1.90;;;1.60;;
12900;SDS011;6518;50.930;5.344;2023-07-24T08:18:28;2.00;;;1.73;;
12900;SDS011;6518;50.930;5.344;2023-07-24T08:20:55;1.48;;;1.38;;
12900;SDS011;6518;50.930;5.344;2023-07-24T08:23:22;2.67;;;2.17;;
12900;SDS011;6518;50.930;5.344;2023-07-24T08:25:52;2.75;;;2.10;;
12900;SDS011;6518;50.930;5.344;2023-07-24T08:28:19;2.30;;;1.83;;
12900;SDS011;6518;50.930;5.344;2023-07-24T08:30:46;2.88;;;1.83;;
12900;SDS011;6518;50.930;5.344;2023-07-24T08:33:22;2.65;;;2.00;;
12900;SDS011;6518;50.930;5.344;2023-07-24T08:35:58;3.30;;;2.03;;
12900;SDS011;6518;50.930;5.344;2023-07-24T08:38:28;2.20;;;2.00;;
12900;SDS011;6518;50.930;5.344;2023-07-24T08:41:02;2.90;;;2.08;;
12900;SDS011;6518;50.930;5.344;2023-07-24T08:43:30;2.20;;;1.88;;
12900;SDS011;6518;50.930;5.344;2023-07-24T08:45:58;2.70;;;2.03;;
12900;SDS011;6518;50.930;5.344;2023-07-24T08:48:26;2.65;;;2.00;;
12900;SDS011;6518;50.930;5.344;2023-07-24T08:50:55;2.15;;;1.95;;
12900;SDS011;6518;50.930;5.344;2023-07-24T08:53:25;2.42;;;1.98;;
12900;SDS011;6518;50.930;5.344;2023-07-24T08:55:53;2.42;;;1.98;;
12900;SDS011;6518;50.930;5.344;2023-07-24T08:58:20;2.58;;;1.95;;
12900;SDS011;6518;50.930;5.344;2023-07-24T09:00:47;2.58;;;2.08;;
12900;SDS011;6518;50.930;5.344;2023-07-24T09:03:16;2.20;;;1.95;;
12900;SDS011;6518;50.930;5.344;2023-07-24T09:05:43;3.30;;;2.00;;
12900;SDS011;6518;50.930;5.344;2023-07-24T09:08:10;3.20;;;1.92;;
12900;SDS011;6518;50.930;5.344;2023-07-24T09:10:39;2.42;;;2.08;;
12900;SDS011;6518;50.930;5.344;2023-07-24T09:13:05;3.80;;;2.05;;
12900;SDS011;6518;50.930;5.344;2023-07-24T09:15:39;2.47;;;1.85;;
12900;SDS011;6518;50.930;5.344;2023-07-24T09:18:06;2.72;;;1.95;;
12900;SDS011;6518;50.930;5.344;2023-07-24T09:20:37;3.22;;;2.22;;
12900;SDS011;6518;50.930;5.344;2023-07-24T09:23:05;2.08;;;1.85;;
12900;SDS011;6518;50.930;5.344;2023-07-24T09:25:33;3.17;;;2.20;;
12900;SDS011;6518;50.930;5.344;2023-07-24T09:28:08;2.83;;;2.33;;
12900;SDS011;6518;50.930;5.344;2023-07-24T09:30:35;3.10;;;2.30;;
12900;SDS011;6518;50.930;5.344;2023-07-24T09:33:03;6.22;;;4.55;;
12900;SDS011;6518;50.930;5.344;2023-07-24T09:35:30;3.58;;;3.28;;
12900;SDS011;6518;50.930;5.344;2023-07-24T09:38:03;5.22;;;2.60;;
12900;SDS011;6518;50.930;5.344;2023-07-24T09:40:38;5.15;;;2.85;;
12900;SDS011;6518;50.930;5.344;2023-07-24T09:43:20;4.78;;;2.90;;
12900;SDS011;6518;50.930;5.344;2023-07-24T09:45:49;4.85;;;3.00;;
12900;SDS011;6518;50.930;5.344;2023-07-24T09:48:17;4.90;;;2.70;;
12900;SDS011;6518;50.930;5.344;2023-07-24T09:50:45;5.80;;;2.80;;
12900;SDS011;6518;50.930;5.344;2023-07-24T09:53:15;4.68;;;3.05;;
12900;SDS011;6518;50.930;5.344;2023-07-24T09:55:47;4.57;;;3.10;;
12900;SDS011;6518;50.930;5.344;2023-07-24T09:58:17;5.32;;;3.22;;
12900;SDS011;6518;50.930;5.344;2023-07-24T10:00:46;5.95;;;3.00;;
12900;SDS011;6518;50.930;5.344;2023-07-24T10:03:15;4.82;;;3.40;;
12900;SDS011;6518;50.930;5.344;2023-07-24T10:05:43;6.55;;;3.65;;
12900;SDS011;6518;50.930;5.344;2023-07-24T10:08:12;3.30;;;2.50;;
12900;SDS011;6518;50.930;5.344;2023-07-24T10:10:40;2.33;;;1.67;;
12900;SDS011;6518;50.930;5.344;2023-07-24T10:13:08;1.52;;;1.40;;
12900;SDS011;6518;50.930;5.344;2023-07-24T10:15:41;3.15;;;1.80;;
12900;SDS011;6518;50.930;5.344;2023-07-24T10:18:09;2.88;;;1.90;;
12900;SDS011;6518;50.930;5.344;2023-07-24T10:20:37;2.10;;;1.50;;
12900;SDS011;6518;50.930;5.344;2023-07-24T10:23:05;2.90;;;1.42;;
12900;SDS011;6518;50.930;5.344;2023-07-24T10:25:33;2.20;;;1.10;;
12900;SDS011;6518;50.930;5.344;2023-07-24T10:28:01;2.05;;;1.30;;
12900;SDS011;6518;50.930;5.344;2023-07-24T10:30:32;4.13;;;1.10;;
12900;SDS011;6518;50.930;5.344;2023-07-24T10:33:08;2.70;;;1.20;;
12900;SDS011;6518;50.930;5.344;2023-07-24T10:35:42;1.17;;;1.08;;
12900;SDS011;6518;50.930;5.344;2023-07-24T10:38:11;1.80;;;1.08;;
12900;SDS011;6518;50.930;5.344;2023-07-24T10:40:39;1.17;;;1.00;;
12900;SDS011;6518;50.930;5.344;2023-07-24T10:43:07;3.83;;;1.25;;
12900;SDS011;6518;50.930;5.344;2023-07-24T10:45:42;1.33;;;1.10;;
12900;SDS011;6518;50.930;5.344;2023-07-24T10:48:13;1.40;;;1.00;;
12900;SDS011;6518;50.930;5.344;2023-07-24T10:50:41;1.73;;;1.25;;
12900;SDS011;6518;50.930;5.344;2023-07-24T10:53:09;1.92;;;1.40;;
12900;SDS011;6518;50.930;5.344;2023-07-24T10:55:36;2.95;;;1.50;;
12900;SDS011;6518;50.930;5.344;2023-07-24T10:58:03;1.85;;;1.40;;
12900;SDS011;6518;50.930;5.344;2023-07-24T11:00:30;1.75;;;1.30;;
12900;SDS011;6518;50.930;5.344;2023-07-24T11:02:57;2.25;;;1.50;;
12900;SDS011;6518;50.930;5.344;2023-07-24T11:05:25;1.70;;;1.55;;
12900;SDS011;6518;50.930;5.344;2023-07-24T11:07:52;4.45;;;2.08;;
12900;SDS011;6518;50.930;5.344;2023-07-24T11:10:21;2.15;;;1.80;;
12900;SDS011;6518;50.930;5.344;2023-07-24T11:12:49;2.67;;;2.35;;
12900;SDS011;6518;50.930;5.344;2023-07-24T11:15:23;3.45;;;2.10;;
12900;SDS011;6518;50.930;5.344;2023-07-24T11:17:51;3.17;;;2.47;;
12900;SDS011;6518;50.930;5.344;2023-07-24T11:20:19;3.17;;;2.25;;
12900;SDS011;6518;50.930;5.344;2023-07-24T11:22:47;3.50;;;2.30;;
12900;SDS011;6518;50.930;5.344;2023-07-24T11:25:14;3.92;;;2.60;;
12900;SDS011;6518;50.930;5.344;2023-07-24T11:27:41;5.43;;;2.63;;
12900;SDS011;6518;50.930;5.344;2023-07-24T11:30:10;3.90;;;2.58;;
12900;SDS011;6518;50.930;5.344;2023-07-24T11:32:38;2.80;;;2.47;;
12900;SDS011;6518;50.930;5.344;2023-07-24T11:35:06;3.25;;;2.60;;
12900;SDS011;6518;50.930;5.344;2023-07-24T11:37:34;2.80;;;2.50;;
12900;SDS011;6518;50.930;5.344;2023-07-24T11:40:03;3.65;;;2.40;;
12900;SDS011;6518;50.930;5.344;2023-07-24T11:42:36;4.18;;;2.67;;
12900;SDS011;6518;50.930;5.344;2023-07-24T11:45:04;2.85;;;2.55;;
12900;SDS011;6518;50.930;5.344;2023-07-24T11:47:44;2.75;;;2.20;;
12900;SDS011;6518;50.930;5.344;2023-07-24T11:50:11;2.20;;;1.90;;
12900;SDS011;6518;50.930;5.344;2023-07-24T11:52:40;3.15;;;2.22;;
12900;SDS011;6518;50.930;5.344;2023-07-24T11:55:10;3.00;;;2.05;;
12900;SDS011;6518;50.930;5.344;2023-07-24T11:57:38;2.70;;;2.38;;
12900;SDS011;6518;50.930;5.344;2023-07-24T12:00:06;3.55;;;2.40;;
12900;SDS011;6518;50.930;5.344;2023-07-24T12:02:44;4.05;;;2.55;;
12900;SDS011;6518;50.930;5.344;2023-07-24T12:05:11;2.53;;;2.22;;
12900;SDS011;6518;50.930;5.344;2023-07-24T12:07:38;3.28;;;2.50;;
12900;SDS011;6518;50.930;5.344;2023-07-24T12:10:05;3.55;;;2.70;;
12900;SDS011;6518;50.930;5.344;2023-07-24T12:12:38;3.05;;;2.70;;
12900;SDS011;6518;50.930;5.344;2023-07-24T12:15:05;2.55;;;2.35;;
12900;SDS011;6518;50.930;5.344;2023-07-24T12:17:33;4.20;;;2.58;;
12900;SDS011;6518;50.930;5.344;2023-07-24T12:20:00;2.97;;;2.35;;
12900;SDS011;6518;50.930;5.344;2023-07-24T12:22:27;3.10;;;2.38;;
12900;SDS011;6518;50.930;5.344;2023-07-24T12:24:54;2.70;;;2.22;;
12900;SDS011;6518;50.930;5.344;2023-07-24T12:27:21;3.03;;;2.30;;
12900;SDS011;6518;50.930;5.344;2023-07-24T12:29:49;2.70;;;2.20;;
12900;SDS011;6518;50.930;5.344;2023-07-24T12:32:16;2.92;;;2.15;;
12900;SDS011;6518;50.930;5.344;2023-07-24T12:34:43;2.50;;;2.13;;
12900;SDS011;6518;50.930;5.344;2023-07-24T12:37:10;2.22;;;1.88;;
12900;SDS011;6518;50.930;5.344;2023-07-24T12:39:37;2.80;;;1.83;;
12900;SDS011;6518;50.930;5.344;2023-07-24T12:42:04;2.88;;;2.03;;
12900;SDS011;6518;50.930;5.344;2023-07-24T12:44:31;3.20;;;2.05;;
12900;SDS011;6518;50.930;5.344;2023-07-24T12:46:59;3.65;;;2.38;;
12900;SDS011;6518;50.930;5.344;2023-07-24T12:49:26;2.30;;;2.10;;
12900;SDS011;6518;50.930;5.344;2023-07-24T12:51:53;2.67;;;2.00;;
12900;SDS011;6518;50.930;5.344;2023-07-24T12:54:20;3.20;;;2.38;;
12900;SDS011;6518;50.930;5.344;2023-07-24T12:56:47;3.95;;;2.40;;
12900;SDS011;6518;50.930;5.344;2023-07-24T12:59:15;3.70;;;2.72;;
12900;SDS011;6518;50.930;5.344;2023-07-24T13:01:42;3.13;;;2.47;;
12900;SDS011;6518;50.930;5.344;2023-07-24T13:04:10;4.00;;;2.60;;
12900;SDS011;6518;50.930;5.344;2023-07-24T13:06:37;3.17;;;2.85;;
12900;SDS011;6518;50.930;5.344;2023-07-24T13:09:04;3.55;;;2.50;;
12900;SDS011;6518;50.930;5.344;2023-07-24T13:11:31;3.08;;;2.20;;
12900;SDS011;6518;50.930;5.344;2023-07-24T13:13:58;3.33;;;2.53;;
12900;SDS011;6518;50.930;5.344;2023-07-24T13:16:25;2.88;;;2.50;;
12900;SDS011;6518;50.930;5.344;2023-07-24T13:18:53;4.95;;;4.30;;
12900;SDS011;6518;50.930;5.344;2023-07-24T13:21:22;3.67;;;3.33;;
12900;SDS011;6518;50.930;5.344;2023-07-24T13:23:48;2.90;;;2.60;;
12900;SDS011;6518;50.930;5.344;2023-07-24T13:26:16;2.78;;;2.10;;
12900;SDS011;6518;50.930;5.344;2023-07-24T13:28:43;3.47;;;2.55;;
12900;SDS011;6518;50.930;5.344;2023-07-24T13:31:10;2.45;;;2.15;;
12900;SDS011;6518;50.930;5.344;2023-07-24T13:33:38;2.50;;;2.22;;
12900;SDS011;6518;50.930;5.344;2023-07-24T13:36:05;2.78;;;2.05;;
12900;SDS011;6518;50.930;5.344;2023-07-24T13:38:33;4.07;;;2.40;;
12900;SDS011;6518;50.930;5.344;2023-07-24T13:41:00;2.50;;;1.83;;
12900;SDS011;6518;50.930;5.344;2023-07-24T13:43:27;2.30;;;2.10;;
12900;SDS011;6518;50.930;5.344;2023-07-24T13:45:54;2.35;;;2.15;;
12900;SDS011;6518;50.930;5.344;2023-07-24T13:48:21;3.38;;;2.63;;
12900;SDS011;6518;50.930;5.344;2023-07-24T13:50:48;3.03;;;2.40;;
12900;SDS011;6518;50.930;5.344;2023-07-24T13:53:16;2.90;;;2.45;;
12900;SDS011;6518;50.930;5.344;2023-07-24T13:55:44;4.68;;;2.53;;
12900;SDS011;6518;50.930;5.344;2023-07-24T13:58:11;2.28;;;2.08;;
12900;SDS011;6518;50.930;5.344;2023-07-24T14:00:38;2.58;;;2.38;;
12900;SDS011;6518;50.930;5.344;2023-07-24T14:03:05;3.03;;;2.30;;
12900;SDS011;6518;50.930;5.344;2023-07-24T14:05:32;2.50;;;2.30;;
12900;SDS011;6518;50.930;5.344;2023-07-24T14:07:59;2.70;;;2.30;;
12900;SDS011;6518;50.930;5.344;2023-07-24T14:10:26;2.88;;;2.45;;
12900;SDS011;6518;50.930;5.344;2023-07-24T14:12:54;2.67;;;2.33;;
12900;SDS011;6518;50.930;5.344;2023-07-24T14:15:21;4.05;;;3.15;;
12900;SDS011;6518;50.930;5.344;2023-07-24T14:17:48;4.80;;;2.50;;
12900;SDS011;6518;50.930;5.344;2023-07-24T14:20:15;2.95;;;2.53;;
12900;SDS011;6518;50.930;5.344;2023-07-24T14:22:43;4.10;;;3.10;;
12900;SDS011;6518;50.930;5.344;2023-07-24T14:25:10;3.47;;;2.78;;
12900;SDS011;6518;50.930;5.344;2023-07-24T14:27:36;3.53;;;3.10;;
12900;SDS011;6518;50.930;5.344;2023-07-24T14:30:05;3.15;;;2.90;;
12900;SDS011;6518;50.930;5.344;2023-07-24T14:32:34;8.63;;;7.85;;
12900;SDS011;6518;50.930;5.344;2023-07-24T14:35:01;4.78;;;4.20;;
12900;SDS011;6518;50.930;5.344;2023-07-24T14:37:28;3.78;;;2.72;;
12900;SDS011;6518;50.930;5.344;2023-07-24T14:39:56;3.67;;;2.78;;
12900;SDS011;6518;50.930;5.344;2023-07-24T14:42:22;3.20;;;2.50;;
12900;SDS011;6518;50.930;5.344;2023-07-24T14:44:49;4.50;;;2.80;;
12900;SDS011;6518;50.930;5.344;2023-07-24T14:47:18;5.13;;;2.90;;
12900;SDS011;6518;50.930;5.344;2023-07-24T14:49:44;2.70;;;2.50;;
12900;SDS011;6518;50.930;5.344;2023-07-24T14:52:11;4.68;;;2.85;;
12900;SDS011;6518;50.930;5.344;2023-07-24T14:54:38;4.05;;;2.50;;
12900;SDS011;6518;50.930;5.344;2023-07-24T14:57:05;4.60;;;3.10;;
12900;SDS011;6518;50.930;5.344;2023-07-24T14:59:32;4.63;;;2.88;;
12900;SDS011;6518;50.930;5.344;2023-07-24T15:01:59;4.63;;;3.30;;
12900;SDS011;6518;50.930;5.344;2023-07-24T15:04:27;2.97;;;2.67;;